»·PEaware :: N20957 KSMX-KBFL

N20957 :: KSMX-KBFL

FLIGHT INFORMATION

Flight Status: Arrived
Operator: Privately registered:
United States
More flights under this callsign
Pilot: Charles P. (32095)
Aircraft: CESSNA 172 SKYHAWK
(C172)
More flights by this aircraft type
Origin: KSMX Santa Maria Pub/Capt Hancock
United States
Destination: KBFL Meadows
United States
More flights between these airports :: More routes between these airports
Route:
File this flight plan on PilotEdge
Remarks: N / A
Altitude:
(Current/Filed)
7,500ft
Speed:
(Current/Filed)
124kts
Departed: 09-Feb-21 02:47 PM
Arrived: 09-Feb-21 03:30 PM
Distance/Time
Traveled:
76nm/0:43
Distance/Time
To Go:
Arrived

Flight Plot

Page will automatically refresh every two minutes.


Map Options




Map Legend


Flown Route
Filed Route
Departure Airport
Arrival Airport
Navaid (VOR, NDB)
Fix

Horizontal Profiles

Position Reports

Time Latitude Longitude Heading Altitude Ground
Speed
09-Feb-21 14:29 34.899303 -120.448960 48 247ft 0kts
09-Feb-21 14:30 34.899303 -120.448960 48 247ft 0kts
09-Feb-21 14:31 34.899303 -120.448960 48 247ft 0kts
09-Feb-21 14:32 34.899303 -120.448961 48 247ft 0kts
09-Feb-21 14:33 34.899303 -120.448961 48 247ft 0kts
09-Feb-21 14:34 34.899303 -120.448962 48 247ft 0kts
09-Feb-21 14:35 34.899302 -120.448962 48 247ft 0kts
09-Feb-21 14:36 34.899302 -120.448962 48 247ft 0kts
09-Feb-21 14:37 34.899302 -120.448963 48 247ft 0kts
09-Feb-21 14:38 34.899302 -120.448964 48 247ft 0kts
09-Feb-21 14:39 34.898455 -120.450067 168 248ft 8kts
09-Feb-21 14:40 34.896374 -120.447666 135 255ft 13kts
09-Feb-21 14:41 34.893756 -120.445273 180 263ft 6kts
09-Feb-21 14:42 34.893441 -120.445280 183 264ft 0kts
09-Feb-21 14:43 34.893441 -120.445280 183 264ft 0kts
09-Feb-21 14:44 34.893441 -120.445280 183 264ft 0kts
09-Feb-21 14:45 34.892995 -120.446148 312 264ft 10kts
09-Feb-21 14:46 34.906586 -120.462563 316 577ft 94kts
09-Feb-21 14:48 34.929790 -120.481244 22 1024ft 110kts
09-Feb-21 14:49 34.948039 -120.456727 106 1526ft 110kts
09-Feb-21 14:50 34.938525 -120.421159 98 2027ft 110kts
09-Feb-21 14:51 34.935178 -120.384170 95 2527ft 109kts
09-Feb-21 14:52 34.942332 -120.348853 62 3028ft 108kts
09-Feb-21 14:53 34.955322 -120.315829 64 3532ft 107kts
09-Feb-21 14:54 34.968054 -120.283062 64 4041ft 107kts
09-Feb-21 14:55 34.980763 -120.250175 64 4532ft 106kts
09-Feb-21 14:56 34.993305 -120.217718 64 5028ft 105kts
09-Feb-21 14:57 35.005711 -120.185568 64 5535ft 104kts
09-Feb-21 14:58 35.018075 -120.153521 64 6034ft 103kts
09-Feb-21 14:59 35.030255 -120.121909 64 6541ft 102kts
09-Feb-21 15:00 35.042239 -120.090775 64 7030ft 99kts
09-Feb-21 15:01 35.053994 -120.060200 64 7454ft 105kts
09-Feb-21 15:01 35.065383 -120.030526 64 7492ft 122kts
09-Feb-21 15:03 35.082651 -119.985557 64 7498ft 126kts
09-Feb-21 15:04 35.097609 -119.946528 64 7498ft 127kts
09-Feb-21 15:05 35.112568 -119.907441 64 7498ft 126kts
09-Feb-21 15:06 35.127549 -119.868257 64 7500ft 127kts
09-Feb-21 15:06 35.140007 -119.835639 64 7498ft 126kts
09-Feb-21 15:07 35.154895 -119.796610 64 7499ft 126kts
09-Feb-21 15:09 35.172267 -119.751007 64 7500ft 126kts
09-Feb-21 15:09 35.184673 -119.718404 64 7500ft 127kts
09-Feb-21 15:10 35.200576 -119.676549 64 7062ft 140kts
09-Feb-21 15:11 35.217072 -119.633106 64 6556ft 141kts
09-Feb-21 15:12 35.233560 -119.589607 64 6055ft 141kts
09-Feb-21 15:13 35.250035 -119.546086 64 5555ft 141kts
09-Feb-21 15:14 35.266490 -119.502557 64 5056ft 141kts
09-Feb-21 15:15 35.282951 -119.458955 64 4553ft 140kts
09-Feb-21 15:16 35.299340 -119.415475 65 4053ft 140kts
09-Feb-21 15:17 35.316129 -119.370876 65 3220ft 148kts
09-Feb-21 15:18 35.333332 -119.325135 65 2219ft 147kts
09-Feb-21 15:19 35.349539 -119.281973 64 1919ft 132kts
09-Feb-21 15:20 35.364639 -119.241692 65 1902ft 128kts
09-Feb-21 15:21 35.379018 -119.203270 65 1896ft 113kts
09-Feb-21 15:22 35.391659 -119.169495 64 1900ft 107kts
09-Feb-21 15:23 35.404089 -119.136244 65 1902ft 106kts
09-Feb-21 15:24 35.417537 -119.103292 56 1793ft 109kts
09-Feb-21 15:25 35.418181 -119.070929 123 1666ft 101kts
09-Feb-21 15:26 35.404031 -119.043217 127 1717ft 94kts
09-Feb-21 15:27 35.409175 -119.017188 337 1279ft 71kts
09-Feb-21 15:28 35.418223 -119.037502 316 809ft 72kts
09-Feb-21 15:29 35.430949 -119.051963 350 484ft 27kts
09-Feb-21 15:30 35.431682 -119.052011 359 482ft 0kts
09-Feb-21 15:31 35.432404 -119.052196 311 482ft 8kts
09-Feb-21 15:32 35.434504 -119.054308 48 487ft 6kts
09-Feb-21 15:33 35.435829 -119.053120 85 491ft 6kts
09-Feb-21 15:34 35.435604 -119.053067 182 490ft 0kts
09-Feb-21 15:35 35.435604 -119.053067 182 490ft 0kts

Navigation Log

Ident Type
Flight plan parsing failed, navigation log unavailable